createdAt,value
2022-10-01T00:02:21.381Z,70.05
2022-10-01T00:07:21.488Z,69.92
2022-10-01T00:12:21.341Z,69.89
2022-10-01T00:17:21.377Z,69.79
2022-10-01T00:22:21.354Z,69.74
2022-10-01T00:27:21.323Z,69.98
2022-10-01T00:32:21.332Z,70.64
2022-10-01T00:37:21.760Z,70.92
2022-10-01T00:42:21.641Z,71.44
2022-10-01T00:47:21.404Z,72.02
2022-10-01T00:52:21.428Z,72.99
2022-10-01T00:57:22.490Z,73.78
2022-10-01T01:02:22.480Z,74.73
2022-10-01T01:07:22.429Z,75.29
2022-10-01T01:12:22.338Z,76.30
2022-10-01T01:17:22.403Z,77.11
2022-10-01T01:22:22.403Z,78.00
2022-10-01T01:27:22.370Z,78.67
2022-10-01T01:32:22.388Z,79.52
2022-10-01T01:37:22.322Z,80.06
2022-10-01T01:42:22.476Z,80.83
2022-10-01T01:47:22.360Z,81.14
2022-10-01T01:52:22.673Z,81.81
2022-10-01T01:57:22.366Z,82.31
2022-10-01T02:02:22.981Z,82.79
2022-10-01T02:07:23.462Z,83.15
2022-10-01T02:12:23.975Z,83.39
2022-10-01T02:17:23.439Z,83.39
2022-10-01T02:22:23.391Z,83.58
2022-10-01T02:27:23.400Z,83.71
2022-10-01T02:32:23.764Z,83.85
2022-10-01T02:37:23.351Z,83.91
2022-10-01T02:42:23.393Z,84.00
2022-10-01T02:47:23.430Z,84.00
2022-10-01T02:52:23.506Z,83.94
2022-10-01T02:57:23.901Z,84.04
2022-10-01T03:02:23.477Z,84.16
2022-10-01T03:07:23.390Z,84.22
2022-10-01T03:12:23.468Z,84.23
2022-10-01T03:17:23.395Z,84.29
2022-10-01T03:22:23.645Z,84.40
2022-10-01T03:27:23.463Z,84.42
2022-10-01T03:32:23.530Z,84.56
2022-10-01T03:37:23.489Z,84.67
2022-10-01T03:42:23.538Z,84.81
2022-10-01T03:47:25.723Z,84.87
2022-10-01T03:52:25.516Z,85.01
2022-10-01T03:57:25.434Z,85.00
2022-10-01T04:02:27.262Z,85.26
2022-10-01T04:07:27.487Z,85.44
2022-10-01T04:12:27.836Z,85.66
2022-10-01T04:17:27.455Z,85.92
2022-10-01T04:22:27.547Z,86.04
2022-10-01T04:27:27.441Z,86.08
2022-10-01T04:32:27.455Z,86.05
2022-10-01T04:37:27.509Z,86.10
2022-10-01T04:42:27.536Z,86.07
2022-10-01T04:47:27.499Z,86.25
2022-10-01T04:52:27.530Z,86.23
2022-10-01T04:57:28.045Z,86.22
2022-10-01T05:02:28.694Z,86.22
2022-10-01T05:07:28.546Z,86.37
2022-10-01T05:12:28.508Z,86.45
2022-10-01T05:17:28.518Z,86.59
2022-10-01T05:22:28.583Z,86.58
2022-10-01T05:27:28.500Z,86.49
2022-10-01T05:32:28.614Z,86.55
2022-10-01T05:37:28.553Z,86.58
2022-10-01T05:42:28.584Z,86.58
2022-10-01T05:47:28.508Z,86.60
2022-10-01T05:52:28.594Z,86.64
2022-10-01T05:57:28.598Z,86.65
2022-10-01T06:02:28.756Z,86.78
2022-10-01T06:07:31.544Z,86.83
2022-10-01T06:12:33.462Z,86.84
2022-10-01T06:17:33.551Z,86.87
2022-10-01T06:22:33.617Z,86.91
2022-10-01T06:27:33.544Z,86.95
2022-10-01T06:32:35.042Z,87.02
2022-10-01T06:37:35.525Z,86.97
2022-10-01T06:42:35.565Z,86.94
2022-10-01T06:47:37.380Z,87.03
2022-10-01T06:52:49.729Z,87.06
2022-10-01T06:57:49.912Z,87.10
2022-10-01T07:02:49.605Z,87.11
2022-10-01T07:07:49.573Z,87.14
2022-10-01T07:12:49.633Z,87.08
2022-10-01T07:17:49.530Z,87.07
2022-10-01T07:22:49.616Z,86.99
2022-10-01T07:27:49.729Z,86.96
2022-10-01T07:32:49.627Z,86.84
2022-10-01T07:37:49.676Z,86.55
2022-10-01T07:42:49.575Z,86.54
2022-10-01T07:47:49.646Z,86.50
2022-10-01T07:52:49.741Z,86.37
2022-10-01T07:57:50.077Z,86.44
2022-10-01T08:02:50.244Z,86.55
2022-10-01T08:07:50.615Z,86.62
2022-10-01T08:12:50.897Z,86.76
2022-10-01T08:17:50.665Z,86.60
2022-10-01T08:22:50.900Z,86.39
2022-10-01T08:27:50.972Z,86.29
2022-10-01T08:32:50.588Z,86.10
2022-10-01T08:37:50.605Z,86.02
2022-10-01T08:42:50.576Z,85.21
2022-10-01T08:47:50.688Z,85.35
2022-10-01T08:52:50.621Z,85.58
2022-10-01T08:57:50.637Z,85.66
2022-10-01T09:02:52.395Z,85.75
2022-10-01T09:07:52.695Z,85.63
2022-10-01T09:12:52.702Z,85.00
2022-10-01T09:17:52.797Z,83.95
2022-10-01T09:22:52.647Z,84.00
2022-10-01T09:27:52.786Z,84.32
2022-10-01T09:32:52.739Z,84.86
2022-10-01T09:37:52.640Z,85.12
2022-10-01T09:42:52.710Z,85.34
2022-10-01T09:47:53.558Z,85.54
2022-10-01T09:52:53.949Z,85.34
2022-10-01T09:57:53.761Z,84.50
2022-10-01T10:02:53.990Z,83.68
2022-10-01T10:07:53.786Z,82.71
2022-10-01T10:12:53.765Z,82.22
2022-10-01T10:17:54.177Z,82.17
2022-10-01T10:22:53.938Z,81.84
2022-10-01T10:27:54.775Z,81.78
2022-10-01T10:32:55.137Z,80.81
2022-10-01T10:37:56.657Z,79.60
2022-10-01T10:42:56.820Z,78.69
2022-10-01T10:47:56.863Z,79.84
2022-10-01T10:52:56.818Z,80.61
2022-10-01T10:57:58.037Z,79.84
2022-10-01T11:02:58.885Z,78.56
2022-10-01T11:07:58.864Z,78.49
2022-10-01T11:12:58.761Z,78.08
2022-10-01T11:17:58.811Z,78.20
2022-10-01T11:22:58.673Z,78.74
2022-10-01T11:27:58.835Z,78.09
2022-10-01T11:33:00.319Z,77.64
2022-10-01T11:37:59.764Z,76.99
2022-10-01T11:43:00.944Z,75.83
2022-10-01T11:48:00.790Z,77.02
2022-10-01T11:53:00.809Z,77.96
2022-10-01T11:58:19.208Z,77.64
2022-10-01T12:03:18.964Z,76.34
2022-10-01T12:08:18.902Z,75.70
2022-10-01T12:13:20.651Z,75.77
2022-10-01T12:18:20.868Z,75.07
2022-10-01T12:23:20.801Z,75.08
2022-10-01T12:28:20.966Z,74.57
2022-10-01T12:33:20.942Z,74.22
2022-10-01T12:38:20.813Z,72.75
2022-10-01T12:43:20.839Z,71.02
2022-10-01T12:48:20.876Z,69.88
2022-10-01T12:53:21.939Z,68.27
2022-10-01T12:58:21.796Z,67.33
2022-10-01T13:03:22.373Z,65.36
2022-10-01T13:08:21.905Z,64.40
2022-10-01T13:13:21.910Z,63.05
2022-10-01T13:18:21.923Z,61.06
2022-10-01T13:23:21.856Z,60.59
2022-10-01T13:28:22.010Z,61.71
2022-10-01T13:33:21.955Z,63.70
2022-10-01T13:38:23.721Z,65.01
2022-10-01T13:43:23.849Z,65.53
2022-10-01T13:48:23.874Z,65.87
2022-10-01T13:53:24.416Z,64.66
2022-10-01T13:58:24.553Z,62.14
2022-10-01T14:03:24.966Z,62.47
2022-10-01T14:08:24.959Z,62.58
2022-10-01T14:13:43.138Z,66.42
2022-10-01T14:18:42.928Z,70.52
2022-10-01T14:23:42.960Z,71.96
2022-10-01T14:28:43.004Z,72.41
2022-10-01T14:33:42.994Z,72.53
2022-10-01T14:38:42.982Z,73.11
2022-10-01T14:43:42.875Z,73.71
2022-10-01T14:48:43.353Z,73.82
2022-10-01T14:53:42.868Z,74.21
2022-10-01T14:58:42.892Z,74.86
2022-10-01T15:03:43.213Z,75.94
2022-10-01T15:08:42.977Z,76.52
2022-10-01T15:13:43.614Z,77.01
2022-10-01T15:18:43.959Z,77.25
2022-10-01T15:23:43.986Z,77.39
2022-10-01T15:28:44.033Z,77.72
2022-10-01T15:33:44.142Z,78.11
2022-10-01T15:38:46.029Z,78.22
2022-10-01T15:43:46.080Z,78.48
2022-10-01T15:48:45.922Z,78.36
2022-10-01T15:53:46.211Z,78.12
2022-10-01T15:58:45.980Z,78.05
2022-10-01T16:03:46.033Z,78.81
2022-10-01T16:08:45.940Z,79.36
2022-10-01T16:13:49.961Z,79.69
2022-10-01T16:18:53.206Z,80.01
2022-10-01T16:23:53.075Z,80.20
2022-10-01T16:28:53.100Z,80.43
2022-10-01T16:33:53.188Z,80.59
2022-10-01T16:38:53.162Z,80.72
2022-10-01T16:43:53.081Z,80.96
2022-10-01T16:48:53.025Z,81.16
2022-10-01T16:53:56.607Z,81.35
2022-10-01T16:58:57.049Z,81.61
2022-10-01T17:03:57.087Z,81.87
2022-10-01T17:08:57.039Z,82.01
2022-10-01T17:13:57.077Z,82.12
2022-10-01T17:18:56.994Z,82.23
2022-10-01T17:23:57.039Z,82.37
2022-10-01T17:28:57.470Z,82.44
2022-10-01T17:33:57.419Z,82.63
2022-10-01T17:38:57.065Z,82.57
2022-10-01T17:43:57.079Z,82.49
2022-10-01T17:48:57.123Z,82.43
2022-10-01T17:54:02.071Z,82.50
2022-10-01T17:59:02.112Z,82.62
2022-10-01T18:04:03.564Z,82.63
2022-10-01T18:09:03.020Z,82.63
2022-10-01T18:14:04.125Z,82.64
2022-10-01T18:24:06.539Z,82.63
2022-10-01T18:29:06.006Z,82.65
2022-10-01T18:34:06.164Z,82.68
2022-10-01T18:39:06.057Z,82.71
2022-10-01T18:44:06.088Z,82.81
2022-10-01T18:49:06.167Z,82.86
2022-10-01T18:54:06.189Z,82.95
2022-10-01T18:59:06.102Z,83.09
2022-10-01T19:04:06.049Z,83.20
2022-10-01T19:09:06.278Z,83.31
2022-10-01T19:14:06.096Z,83.48
2022-10-01T19:19:06.742Z,83.57
2022-10-01T19:24:07.059Z,83.65
2022-10-01T19:29:07.065Z,83.67
2022-10-01T19:34:07.196Z,83.78
2022-10-01T19:39:07.146Z,83.90
2022-10-01T19:44:07.118Z,83.91
2022-10-01T19:49:07.501Z,84.10
2022-10-01T19:54:07.505Z,84.22
2022-10-01T19:59:07.360Z,84.30
2022-10-01T20:04:07.179Z,84.36
2022-10-01T20:09:07.126Z,84.46
2022-10-01T20:14:07.149Z,84.59
2022-10-01T20:19:07.200Z,84.75
2022-10-01T20:24:07.377Z,84.77
2022-10-01T20:29:07.154Z,84.94
2022-10-01T20:34:07.186Z,85.14
2022-10-01T20:39:07.412Z,85.29
2022-10-01T20:44:09.089Z,85.33
2022-10-01T20:49:10.843Z,85.46
2022-10-01T20:54:11.213Z,85.54
2022-10-01T20:59:11.129Z,85.72
2022-10-01T21:04:11.713Z,85.81
2022-10-01T21:09:11.222Z,85.94
2022-10-01T21:14:11.217Z,86.01
2022-10-01T21:19:12.609Z,86.06
2022-10-01T21:24:12.154Z,86.09
2022-10-01T21:29:12.206Z,86.15
2022-10-01T21:34:12.212Z,86.24
2022-10-01T21:39:12.138Z,86.29
2022-10-01T21:44:12.218Z,86.39
2022-10-01T21:49:12.143Z,86.37
2022-10-01T21:54:12.268Z,86.34
2022-10-01T21:59:12.386Z,86.40
2022-10-01T22:04:12.240Z,86.43
2022-10-01T22:09:12.252Z,86.46
2022-10-01T22:14:12.231Z,86.47
2022-10-01T22:19:12.231Z,86.62
2022-10-01T22:24:12.155Z,86.67
2022-10-01T22:29:12.193Z,86.69
2022-10-01T22:34:12.257Z,86.82
2022-10-01T22:39:12.293Z,86.80
2022-10-01T22:44:12.308Z,86.85
2022-10-01T22:49:12.182Z,86.85
2022-10-01T22:54:13.269Z,86.70
2022-10-01T22:59:13.266Z,86.48
2022-10-01T23:04:13.299Z,86.35
2022-10-01T23:09:13.209Z,86.29
2022-10-01T23:14:13.200Z,86.26
2022-10-01T23:19:13.412Z,86.41
2022-10-01T23:24:13.628Z,86.49
2022-10-01T23:29:13.523Z,86.58
2022-10-01T23:34:13.207Z,86.72
2022-10-01T23:39:13.325Z,86.75
2022-10-01T23:44:13.273Z,86.86
2022-10-01T23:49:13.408Z,87.04
2022-10-01T23:54:13.362Z,87.08
2022-10-01T23:59:13.329Z,87.00
